createdAt,value
2023-08-12T00:01:45.427Z,60.90
2023-08-12T00:04:48.869Z,60.78
2023-08-12T00:07:53.149Z,60.97
2023-08-12T00:10:56.935Z,60.93
2023-08-12T00:13:59.962Z,60.94
2023-08-12T00:17:03.793Z,61.06
2023-08-12T00:20:08.020Z,61.16
2023-08-12T00:23:10.988Z,61.10
2023-08-12T00:26:14.463Z,61.02
2023-08-12T00:29:17.467Z,61.17
2023-08-12T00:32:20.413Z,61.15
2023-08-12T00:35:23.369Z,61.18
2023-08-12T00:38:26.410Z,61.16
2023-08-12T00:41:29.299Z,61.32
2023-08-12T00:44:32.288Z,61.26
2023-08-12T00:47:35.252Z,61.22
2023-08-12T00:50:38.753Z,61.25
2023-08-12T00:53:42.042Z,61.39
2023-08-12T00:56:46.114Z,61.37
2023-08-12T00:59:50.350Z,61.47
2023-08-12T01:02:55.167Z,61.56
2023-08-12T01:05:58.357Z,61.52
2023-08-12T01:09:02.773Z,61.60
2023-08-12T01:12:18.115Z,61.76
2023-08-12T01:15:24.946Z,61.66
2023-08-12T01:18:28.879Z,62.03
2023-08-12T01:21:33.651Z,61.88
2023-08-12T01:24:39.471Z,61.79
2023-08-12T01:27:42.441Z,61.85
2023-08-12T01:31:08.636Z,61.79
2023-08-12T01:34:21.684Z,61.85
2023-08-12T01:37:28.144Z,61.76
2023-08-12T01:40:33.661Z,61.95
2023-08-12T01:43:37.000Z,61.90
2023-08-12T01:46:40.054Z,61.98
2023-08-12T01:49:43.003Z,61.99
2023-08-12T01:52:46.015Z,62.01
2023-08-12T01:55:51.121Z,61.87
2023-08-12T01:58:54.139Z,61.94
2023-08-12T02:01:57.097Z,61.98
2023-08-12T02:05:00.167Z,62.15
2023-08-12T02:08:03.369Z,62.18
2023-08-12T02:11:06.398Z,62.06
2023-08-12T02:14:09.525Z,62.06
2023-08-12T02:17:12.836Z,62.06
2023-08-12T02:20:16.276Z,61.99
2023-08-12T02:23:19.283Z,62.13
2023-08-12T02:26:22.248Z,62.10
2023-08-12T02:29:25.282Z,61.96
2023-08-12T02:32:28.417Z,62.05
2023-08-12T02:35:31.453Z,62.15
2023-08-12T02:38:34.485Z,62.17
2023-08-12T02:41:37.448Z,62.23
2023-08-12T02:44:40.397Z,62.06
2023-08-12T02:47:43.434Z,61.98
2023-08-12T02:50:46.440Z,61.86
2023-08-12T02:53:49.418Z,61.99
2023-08-12T02:56:52.345Z,62.08
2023-08-12T02:59:55.419Z,62.09
2023-08-12T03:02:58.530Z,62.14
2023-08-12T03:06:01.717Z,61.91
2023-08-12T03:09:05.486Z,62.06
2023-08-12T03:12:08.843Z,61.99
2023-08-12T03:15:12.172Z,61.86
2023-08-12T03:18:15.216Z,61.95
2023-08-12T03:21:18.231Z,61.82
2023-08-12T03:24:21.310Z,61.77
2023-08-12T03:27:24.510Z,61.67
2023-08-12T03:30:27.978Z,61.59
2023-08-12T03:33:33.024Z,61.64
2023-08-12T03:36:36.432Z,61.77
2023-08-12T03:39:40.123Z,61.69
2023-08-12T03:42:43.156Z,61.61
2023-08-12T03:45:46.632Z,61.65
2023-08-12T03:48:51.259Z,61.84
2023-08-12T03:51:54.570Z,61.93
2023-08-12T03:54:57.957Z,61.99
2023-08-12T03:58:02.205Z,62.04
2023-08-12T04:01:05.649Z,62.03
2023-08-12T04:04:10.392Z,62.34
2023-08-12T04:07:14.929Z,62.27
2023-08-12T04:10:18.404Z,62.40
2023-08-12T04:13:21.753Z,62.37
2023-08-12T04:16:24.824Z,62.68
2023-08-12T04:19:27.874Z,62.71
2023-08-12T04:22:30.827Z,62.57
2023-08-12T04:25:33.767Z,62.86
2023-08-12T04:28:38.333Z,62.86
2023-08-12T04:31:42.475Z,63.16
2023-08-12T04:34:46.954Z,63.12
2023-08-12T04:37:50.559Z,63.22
2023-08-12T04:40:55.939Z,63.34
2023-08-12T04:43:59.439Z,63.52
2023-08-12T04:47:04.168Z,63.68
2023-08-12T04:50:07.942Z,63.77
2023-08-12T04:53:11.244Z,63.88
2023-08-12T04:56:14.494Z,63.98
2023-08-12T04:59:17.522Z,64.14
2023-08-12T05:02:21.784Z,64.43
2023-08-12T05:05:27.198Z,64.58
2023-08-12T05:08:30.229Z,64.91
2023-08-12T05:11:33.306Z,64.87
2023-08-12T05:14:36.410Z,65.21
2023-08-12T05:17:39.408Z,65.33
2023-08-12T05:20:46.710Z,65.31
2023-08-12T05:23:50.454Z,65.46
2023-08-12T05:26:53.492Z,65.47
2023-08-12T05:29:56.475Z,65.74
2023-08-12T05:32:59.490Z,65.84
2023-08-12T05:36:03.942Z,65.76
2023-08-12T05:39:11.103Z,66.11
2023-08-12T05:42:14.409Z,66.21
2023-08-12T05:45:17.500Z,66.12
2023-08-12T05:48:20.392Z,66.20
2023-08-12T05:51:23.396Z,66.01
2023-08-12T05:54:26.318Z,65.82
2023-08-12T05:57:29.935Z,65.91
2023-08-12T06:00:33.158Z,66.06
2023-08-12T06:03:36.197Z,66.07
2023-08-12T06:06:39.509Z,65.97
2023-08-12T06:09:42.540Z,66.12
2023-08-12T06:12:45.473Z,65.99
2023-08-12T06:15:48.471Z,66.14
2023-08-12T06:18:51.402Z,66.15
2023-08-12T06:21:54.426Z,66.00
2023-08-12T06:24:57.326Z,65.71
2023-08-12T06:28:00.390Z,65.55
2023-08-12T06:31:03.477Z,65.33
2023-08-12T06:34:06.526Z,65.02
2023-08-12T06:37:09.771Z,64.80
2023-08-12T06:40:12.710Z,64.39
2023-08-12T06:43:15.591Z,64.14
2023-08-12T06:46:18.664Z,63.83
2023-08-12T06:49:21.654Z,63.76
2023-08-12T06:52:24.946Z,63.35
2023-08-12T06:55:27.953Z,63.04
2023-08-12T06:58:30.875Z,62.42
2023-08-12T07:01:33.878Z,62.08
2023-08-12T07:04:36.987Z,61.79
2023-08-12T07:07:40.278Z,61.23
2023-08-12T07:10:44.652Z,61.12
2023-08-12T07:13:47.675Z,60.96
2023-08-12T07:16:50.723Z,60.63
2023-08-12T07:19:53.825Z,60.67
2023-08-12T07:22:57.136Z,60.60
2023-08-12T07:26:00.115Z,60.24
2023-08-12T07:29:03.130Z,60.14
2023-08-12T07:32:06.331Z,59.76
2023-08-12T07:35:09.837Z,59.32
2023-08-12T07:38:13.258Z,58.98
2023-08-12T07:41:16.236Z,58.56
2023-08-12T07:44:19.266Z,58.10
2023-08-12T07:47:22.268Z,57.29
2023-08-12T07:50:25.300Z,57.43
2023-08-12T07:53:28.215Z,57.35
2023-08-12T07:56:31.235Z,56.75
2023-08-12T07:59:34.289Z,56.54
2023-08-12T08:02:37.299Z,55.88
2023-08-12T08:05:43.591Z,56.05
2023-08-12T08:08:46.704Z,56.07
2023-08-12T08:11:49.809Z,55.91
2023-08-12T08:14:53.070Z,55.44
2023-08-12T08:17:56.151Z,55.08
2023-08-12T08:21:05.638Z,54.61
2023-08-12T08:24:09.834Z,54.35
2023-08-12T08:27:14.396Z,54.42
2023-08-12T08:30:17.612Z,54.00
2023-08-12T08:36:24.180Z,53.56
2023-08-12T08:39:27.576Z,53.30
2023-08-12T08:42:30.779Z,53.30
2023-08-12T08:45:34.868Z,52.62
2023-08-12T08:48:39.316Z,52.62
2023-08-12T08:51:43.886Z,52.26
2023-08-12T08:54:46.922Z,51.91
2023-08-12T08:57:51.154Z,51.91
2023-08-12T09:00:54.230Z,52.12
2023-08-12T09:03:58.695Z,51.94
2023-08-12T09:07:02.519Z,51.94
2023-08-12T09:10:06.503Z,51.31
2023-08-12T09:13:10.481Z,50.81
2023-08-12T09:16:13.894Z,50.77
2023-08-12T09:19:16.880Z,50.35
2023-08-12T09:22:19.940Z,50.40
2023-08-12T09:25:22.896Z,50.67
2023-08-12T09:28:25.926Z,50.31
2023-08-12T09:31:31.077Z,49.70
2023-08-12T09:34:34.325Z,49.22
2023-08-12T09:37:37.301Z,49.20
2023-08-12T09:40:41.071Z,49.48
2023-08-12T09:43:44.773Z,49.06
2023-08-12T09:46:47.691Z,49.03
2023-08-12T09:49:51.166Z,48.42
2023-08-12T09:52:56.142Z,48.13
2023-08-12T09:56:06.458Z,48.12
2023-08-12T09:59:11.508Z,47.84
2023-08-12T10:02:19.657Z,47.05
2023-08-12T10:05:27.641Z,46.86
2023-08-12T10:08:31.010Z,47.60
2023-08-12T10:11:34.015Z,47.22
2023-08-12T10:14:37.201Z,46.96
2023-08-12T10:17:44.010Z,47.15
2023-08-12T10:20:49.194Z,47.04
2023-08-12T10:23:53.738Z,46.91
2023-08-12T10:26:56.845Z,46.16
2023-08-12T10:30:00.354Z,46.45
2023-08-12T10:33:04.413Z,46.36
2023-08-12T10:36:08.641Z,45.86
2023-08-12T10:39:11.732Z,45.96
2023-08-12T10:42:15.192Z,46.01
2023-08-12T10:45:19.374Z,46.14
2023-08-12T10:48:25.034Z,46.00
2023-08-12T10:51:54.772Z,45.93
2023-08-12T10:55:20.977Z,45.66
2023-08-12T10:58:41.946Z,45.17
2023-08-12T11:01:45.695Z,44.72
2023-08-12T11:05:01.974Z,44.44
2023-08-12T11:08:07.347Z,44.41
2023-08-12T11:11:21.301Z,44.78
2023-08-12T11:14:24.979Z,44.40
2023-08-12T11:17:38.336Z,44.35
2023-08-12T11:20:42.056Z,43.92
2023-08-12T11:23:45.792Z,44.08
2023-08-12T11:26:50.263Z,44.44
2023-08-12T11:29:53.356Z,44.38
2023-08-12T11:32:57.116Z,44.16
2023-08-12T11:36:00.230Z,44.13
2023-08-12T11:39:03.909Z,44.17
2023-08-12T11:42:06.880Z,44.45
2023-08-12T11:45:10.655Z,44.28
2023-08-12T11:48:13.970Z,44.00
2023-08-12T11:51:17.479Z,43.55
2023-08-12T11:54:21.471Z,43.09
2023-08-12T11:57:24.883Z,43.14
2023-08-12T12:00:28.244Z,43.13
2023-08-12T12:03:31.364Z,42.96
2023-08-12T12:06:37.973Z,42.78
2023-08-12T12:09:45.222Z,42.70
2023-08-12T12:12:48.292Z,42.63
2023-08-12T12:15:51.201Z,42.57
2023-08-12T12:19:00.299Z,42.47
2023-08-12T12:22:09.182Z,42.56
2023-08-12T12:25:14.406Z,42.70
2023-08-12T12:28:17.398Z,42.89
2023-08-12T12:31:23.060Z,42.85
2023-08-12T12:34:26.075Z,42.72
2023-08-12T12:37:29.248Z,42.66
2023-08-12T12:40:32.654Z,42.66
2023-08-12T12:43:35.966Z,42.61
2023-08-12T12:46:39.344Z,42.52
2023-08-12T12:49:45.307Z,42.40
2023-08-12T12:52:48.518Z,42.09
2023-08-12T12:55:51.898Z,42.32
2023-08-12T12:58:55.516Z,42.32
2023-08-12T13:01:59.215Z,42.55
2023-08-12T13:05:02.492Z,42.50
2023-08-12T13:08:07.367Z,42.07
2023-08-12T13:11:11.105Z,42.54
2023-08-12T13:14:14.149Z,42.75
2023-08-12T13:17:17.500Z,42.35
2023-08-12T13:20:22.035Z,42.37
2023-08-12T13:23:24.997Z,42.73
2023-08-12T13:26:28.118Z,42.79
2023-08-12T13:29:32.102Z,42.60
2023-08-12T13:32:35.141Z,42.64
2023-08-12T13:35:38.161Z,43.12
2023-08-12T13:38:41.202Z,42.85
2023-08-12T13:41:44.759Z,42.78
2023-08-12T13:44:47.757Z,43.22
2023-08-12T13:47:52.768Z,43.21
2023-08-12T13:50:56.744Z,43.35
2023-08-12T13:54:00.835Z,43.25
2023-08-12T13:57:04.274Z,43.61
2023-08-12T14:00:10.918Z,43.52
2023-08-12T14:03:19.938Z,43.57
2023-08-12T14:06:22.999Z,43.24
2023-08-12T14:09:25.923Z,43.27
2023-08-12T14:12:29.160Z,43.01
2023-08-12T14:15:32.215Z,43.37
2023-08-12T14:18:35.409Z,43.36
2023-08-12T14:21:38.333Z,43.31
2023-08-12T14:24:41.530Z,43.58
2023-08-12T14:27:44.489Z,43.47
2023-08-12T14:30:47.968Z,42.94
2023-08-12T14:33:51.095Z,42.81
2023-08-12T14:36:54.058Z,43.32
2023-08-12T14:39:57.200Z,43.61
2023-08-12T14:43:00.111Z,43.18
2023-08-12T14:46:03.318Z,42.89
2023-08-12T14:49:06.273Z,42.67
2023-08-12T14:52:20.274Z,42.57
2023-08-12T14:55:23.332Z,42.66
2023-08-12T14:58:26.249Z,42.64
2023-08-12T15:01:29.436Z,42.44
2023-08-12T15:04:33.861Z,42.25
2023-08-12T15:07:36.915Z,42.25
2023-08-12T15:10:39.903Z,42.29
2023-08-12T15:13:43.188Z,42.10
2023-08-12T15:16:46.143Z,41.89
2023-08-12T15:19:49.120Z,42.07
2023-08-12T15:22:52.036Z,42.21
2023-08-12T15:25:54.928Z,42.46
2023-08-12T15:28:57.905Z,42.53
2023-08-12T15:32:01.483Z,42.47
2023-08-12T15:35:04.769Z,42.34
2023-08-12T15:38:07.745Z,42.50
2023-08-12T15:41:15.474Z,42.62
2023-08-12T15:44:18.473Z,42.64
2023-08-12T15:47:21.497Z,42.62
2023-08-12T15:50:24.451Z,42.80
2023-08-12T15:53:27.400Z,42.61
2023-08-12T15:56:32.390Z,42.70
2023-08-12T15:59:37.137Z,43.10
2023-08-12T16:02:40.299Z,43.79
2023-08-12T16:05:43.662Z,43.75
2023-08-12T16:08:52.970Z,44.14
2023-08-12T16:12:04.066Z,44.65
2023-08-12T16:15:07.734Z,45.10
2023-08-12T16:18:10.892Z,44.79
2023-08-12T16:21:13.891Z,44.58
2023-08-12T16:24:16.973Z,44.47
2023-08-12T16:27:19.966Z,44.50
2023-08-12T16:30:23.204Z,44.37
2023-08-12T16:33:26.190Z,44.29
2023-08-12T16:36:29.200Z,44.27
2023-08-12T16:39:32.204Z,45.22
2023-08-12T16:42:35.450Z,46.06
2023-08-12T16:45:38.406Z,46.58
2023-08-12T16:48:41.415Z,46.84
2023-08-12T16:51:44.310Z,46.87
2023-08-12T16:54:47.331Z,47.07
2023-08-12T16:57:50.333Z,47.53
2023-08-12T17:00:53.704Z,47.84
2023-08-12T17:03:56.806Z,48.03
2023-08-12T17:06:59.794Z,48.24
2023-08-12T17:10:02.936Z,48.71
2023-08-12T17:13:06.114Z,48.99
2023-08-12T17:16:09.111Z,49.30
2023-08-12T17:19:12.119Z,49.36
2023-08-12T17:22:15.626Z,49.38
2023-08-12T17:25:18.732Z,49.79
2023-08-12T17:28:22.377Z,49.95
2023-08-12T17:31:25.305Z,50.23
2023-08-12T17:34:28.281Z,50.50
2023-08-12T17:37:36.667Z,50.69
2023-08-12T17:40:39.892Z,50.89
2023-08-12T17:43:47.954Z,51.20
2023-08-12T17:46:51.369Z,51.28
2023-08-12T17:49:57.096Z,51.69
2023-08-12T17:53:00.134Z,51.79
2023-08-12T17:56:04.477Z,51.87
2023-08-12T17:59:07.477Z,51.93
2023-08-12T18:02:13.327Z,52.24
2023-08-12T18:05:20.870Z,52.38
2023-08-12T18:08:24.299Z,52.55
2023-08-12T18:11:28.275Z,52.63
2023-08-12T18:14:31.252Z,52.91
2023-08-12T18:17:34.217Z,52.96
2023-08-12T18:20:37.209Z,53.05
2023-08-12T18:23:40.158Z,53.16
2023-08-12T18:26:43.141Z,53.32
2023-08-12T18:29:46.164Z,53.32
2023-08-12T18:32:49.157Z,53.57
2023-08-12T18:35:52.262Z,53.68
2023-08-12T18:38:55.187Z,53.85
2023-08-12T18:41:58.060Z,54.07
2023-08-12T18:45:01.009Z,54.30
2023-08-12T18:48:04.505Z,54.30
2023-08-12T18:51:07.550Z,54.38
2023-08-12T18:54:10.523Z,54.28
2023-08-12T18:57:13.510Z,54.36
2023-08-12T19:00:17.082Z,54.57
2023-08-12T19:03:20.074Z,54.58
2023-08-12T19:06:23.207Z,54.77
2023-08-12T19:09:26.851Z,54.76
2023-08-12T19:12:29.793Z,55.13
2023-08-12T19:15:32.776Z,55.24
2023-08-12T19:18:36.037Z,55.41
2023-08-12T19:21:39.540Z,55.42
2023-08-12T19:24:42.460Z,55.53
2023-08-12T19:27:45.365Z,55.71
2023-08-12T19:30:51.922Z,55.94
2023-08-12T19:33:54.933Z,55.86
2023-08-12T19:36:57.985Z,55.56
2023-08-12T19:40:00.891Z,55.43
2023-08-12T19:43:04.000Z,55.47
2023-08-12T19:46:07.533Z,55.69
2023-08-12T19:49:10.467Z,55.71
2023-08-12T19:52:13.647Z,55.73
2023-08-12T19:55:17.062Z,55.85
2023-08-12T19:58:20.662Z,55.86
2023-08-12T20:01:23.696Z,55.93
2023-08-12T20:04:26.849Z,55.97
2023-08-12T20:07:30.140Z,56.12
2023-08-12T20:10:33.240Z,56.19
2023-08-12T20:13:36.281Z,56.13
2023-08-12T20:16:39.321Z,56.44
2023-08-12T20:19:42.431Z,56.34
2023-08-12T20:23:03.417Z,56.42
2023-08-12T20:26:10.257Z,56.48
2023-08-12T20:29:13.217Z,56.57
2023-08-12T20:32:17.359Z,56.55
2023-08-12T20:35:20.349Z,56.56
2023-08-12T20:38:23.314Z,56.65
2023-08-12T20:41:26.233Z,56.60
2023-08-12T20:44:29.275Z,56.64
2023-08-12T20:47:32.270Z,56.61
2023-08-12T20:50:35.247Z,56.89
2023-08-12T20:53:38.452Z,56.87
2023-08-12T20:56:41.565Z,57.00
2023-08-12T20:59:47.346Z,57.00
2023-08-12T21:02:50.615Z,57.08
2023-08-12T21:05:53.691Z,57.04
2023-08-12T21:08:56.633Z,57.00
2023-08-12T21:11:59.948Z,57.24
2023-08-12T21:15:03.553Z,57.20
2023-08-12T21:18:06.588Z,57.09
2023-08-12T21:21:09.723Z,57.11
2023-08-12T21:24:12.782Z,57.18
2023-08-12T21:27:15.772Z,57.31
2023-08-12T21:30:20.072Z,57.44
2023-08-12T21:33:23.100Z,57.42
2023-08-12T21:36:26.159Z,57.29
2023-08-12T21:39:29.125Z,57.31
2023-08-12T21:42:32.098Z,57.22
2023-08-12T21:45:35.107Z,57.31
2023-08-12T21:48:38.072Z,57.38
2023-08-12T21:51:40.971Z,57.28
2023-08-12T21:54:44.551Z,57.35
2023-08-12T21:57:47.606Z,57.33
2023-08-12T22:00:50.687Z,57.29
2023-08-12T22:03:53.672Z,57.48
2023-08-12T22:06:56.669Z,57.44
2023-08-12T22:10:00.542Z,57.52
2023-08-12T22:13:03.928Z,57.55
2023-08-12T22:16:07.108Z,57.39
2023-08-12T22:19:10.314Z,57.63
2023-08-12T22:22:19.275Z,57.56
2023-08-12T22:25:23.229Z,57.56
2023-08-12T22:28:26.172Z,57.54
2023-08-12T22:31:29.269Z,57.79
2023-08-12T22:34:32.284Z,57.76
2023-08-12T22:37:35.331Z,57.75
2023-08-12T22:40:38.229Z,57.89
2023-08-12T22:43:41.218Z,57.89
2023-08-12T22:46:44.210Z,57.84
2023-08-12T22:49:47.555Z,58.00
2023-08-12T22:52:50.731Z,57.99
2023-08-12T22:55:53.689Z,58.24
2023-08-12T22:58:58.933Z,58.40
2023-08-12T23:02:02.038Z,58.22
2023-08-12T23:05:05.380Z,58.19
2023-08-12T23:08:08.624Z,58.31
2023-08-12T23:11:11.671Z,58.47
2023-08-12T23:14:14.889Z,58.59
2023-08-12T23:17:18.028Z,58.56
2023-08-12T23:20:21.177Z,58.74
2023-08-12T23:23:24.257Z,58.68
2023-08-12T23:26:27.201Z,58.75
2023-08-12T23:29:30.186Z,58.62
2023-08-12T23:32:33.204Z,58.91
2023-08-12T23:35:36.202Z,58.85
2023-08-12T23:38:39.085Z,58.92
2023-08-12T23:41:42.192Z,58.90
2023-08-12T23:44:45.072Z,58.79
2023-08-12T23:47:48.059Z,58.73
2023-08-12T23:50:52.004Z,58.55
2023-08-12T23:53:55.022Z,58.71
2023-08-12T23:56:59.692Z,58.71
